Time;durP1;ratioP1;P1;durP2;ratioP2;P2;SDS_P1;SDS_P2;PMS_P1;PMS_P2;Temp;Humidity;BMP_temperature;BMP_pressure;BME280_temperature;BME280_humidity;BME280_pressure;Samples;Min_cycle;Max_cycle;Signal;HPM_P1;HPM_P2
2023/06/27 00:00:33;;;;;;;3.22;1.33;;;20.50;99.90;;;;;;5056293;28;20212;-58
2023/06/27 00:03:01;;;;;;;6.65;1.50;;;20.40;99.90;;;;;;5063586;28;20220;-57
2023/06/27 00:05:30;;;;;;;1.90;1.40;;;20.40;99.90;;;;;;5064973;28;20213;-55
2023/06/27 00:07:59;;;;;;;2.67;0.90;;;20.40;99.90;;;;;;5067635;28;20209;-57
2023/06/27 00:10:27;;;;;;;7.82;0.88;;;20.30;99.90;;;;;;5055046;28;20231;-62
2023/06/27 00:12:56;;;;;;;1.65;0.93;;;20.30;99.90;;;;;;5066870;28;20233;-56
2023/06/27 00:15:26;;;;;;;5.05;0.85;;;20.30;99.90;;;;;;5067002;28;20267;-56
2023/06/27 00:17:55;;;;;;;1.50;1.30;;;20.30;99.90;;;;;;5071504;28;20254;-57
2023/06/27 00:20:23;;;;;;;2.88;1.10;;;20.20;99.90;;;;;;5055273;28;20292;-59
2023/06/27 00:22:52;;;;;;;3.22;1.13;;;20.20;99.90;;;;;;5071594;28;20224;-59
2023/06/27 00:25:21;;;;;;;1.10;1.00;;;20.20;99.90;;;;;;5060840;28;20220;-57
2023/06/27 00:27:51;;;;;;;4.35;1.75;;;20.10;99.90;;;;;;5066232;28;20251;-60
2023/06/27 00:30:21;;;;;;;5.28;1.42;;;20.10;99.90;;;;;;5054932;28;20267;-59
2023/06/27 00:32:48;;;;;;;4.63;1.00;;;20.00;99.90;;;;;;5071712;28;20233;-57
2023/06/27 00:35:16;;;;;;;4.82;1.15;;;20.00;99.90;;;;;;5070702;28;20216;-57
2023/06/27 00:37:44;;;;;;;6.55;1.27;;;20.00;99.90;;;;;;5057404;28;20614;-57
2023/06/27 00:40:13;;;;;;;9.57;1.13;;;19.90;99.90;;;;;;5069459;28;20205;-57
2023/06/27 00:42:42;;;;;;;6.35;1.40;;;19.80;99.90;;;;;;5065987;28;20252;-56
2023/06/27 00:45:10;;;;;;;6.15;1.50;;;19.70;99.90;;;;;;5060196;28;20243;-57
2023/06/27 00:47:38;;;;;;;4.35;1.00;;;19.60;99.90;;;;;;5071416;28;20200;-55
2023/06/27 00:50:07;;;;;;;6.82;0.68;;;19.50;99.90;;;;;;5070639;28;20581;-56
2023/06/27 00:52:35;;;;;;;4.25;1.23;;;19.50;99.90;;;;;;5055851;28;20228;-56
2023/06/27 00:55:04;;;;;;;2.88;1.05;;;19.40;99.90;;;;;;5062509;28;20218;-57
2023/06/27 00:57:32;;;;;;;3.47;1.13;;;19.30;99.90;;;;;;5063974;28;20208;-56
2023/06/27 01:00:01;;;;;;;7.20;1.63;;;19.30;99.90;;;;;;5062953;28;20690;-57
2023/06/27 01:02:29;;;;;;;4.57;1.08;;;19.20;99.90;;;;;;5070846;28;20253;-57
2023/06/27 01:04:57;;;;;;;3.30;1.00;;;19.10;99.90;;;;;;5081391;28;20285;-56
2023/06/27 01:07:26;;;;;;;4.47;1.00;;;19.10;99.90;;;;;;5081714;28;20238;-58
2023/06/27 01:09:56;;;;;;;3.97;1.10;;;19.00;99.90;;;;;;5084421;28;20196;-58
2023/06/27 01:12:27;;;;;;;1.80;1.10;;;19.00;99.90;;;;;;5076263;28;20709;-56
2023/06/27 01:14:57;;;;;;;4.35;1.20;;;18.90;99.90;;;;;;5086918;22;20263;-78
2023/06/27 01:17:26;;;;;;;2.50;0.90;;;18.80;99.90;;;;;;5088798;28;20264;-79
2023/06/27 01:19:54;;;;;;;3.67;1.30;;;18.80;99.90;;;;;;5088695;28;20559;-77
2023/06/27 01:22:29;;;;;;;3.22;1.13;;;18.80;99.90;;;;;;5088645;28;20267;-78
2023/06/27 01:24:59;;;;;;;3.53;1.15;;;18.70;99.90;;;;;;5090667;28;20790;-78
2023/06/27 01:27:28;;;;;;;2.67;1.20;;;18.70;99.90;;;;;;5087772;28;20211;-77
2023/06/27 01:29:57;;;;;;;3.58;1.20;;;18.60;99.90;;;;;;5092387;28;20211;-77
2023/06/27 01:32:26;;;;;;;1.23;1.05;;;18.60;99.90;;;;;;5092539;28;20254;-77
2023/06/27 01:34:57;;;;;;;1.73;1.10;;;18.50;99.90;;;;;;5102993;28;20200;-77
2023/06/27 01:37:26;;;;;;;3.92;1.17;;;18.40;99.90;;;;;;5075547;28;20251;-77
2023/06/27 01:39:57;;;;;;;4.50;1.35;;;18.40;99.90;;;;;;5085579;28;20277;-77
2023/06/27 01:42:27;;;;;;;4.55;1.38;;;18.40;99.90;;;;;;5090100;28;20318;-76
2023/06/27 01:44:55;;;;;;;2.30;1.00;;;18.30;99.90;;;;;;5081806;28;20213;-77
2023/06/27 01:47:23;;;;;;;2.53;1.40;;;18.30;99.90;;;;;;5081937;28;20253;-77
2023/06/27 01:49:51;;;;;;;3.38;1.00;;;18.30;99.90;;;;;;5091931;28;20229;-77
2023/06/27 01:52:20;;;;;;;1.55;1.10;;;18.20;99.90;;;;;;5091694;28;20255;-76
2023/06/27 01:54:48;;;;;;;4.60;1.13;;;18.20;99.90;;;;;;5095416;28;20700;-77
2023/06/27 01:57:16;;;;;;;3.90;1.02;;;18.10;99.90;;;;;;5092989;28;20196;-77
2023/06/27 01:59:45;;;;;;;4.82;1.38;;;18.10;99.90;;;;;;5098108;28;20280;-78
2023/06/27 02:02:13;;;;;;;1.95;1.00;;;18.00;99.90;;;;;;5089856;28;20701;-76
2023/06/27 02:04:41;;;;;;;5.10;1.13;;;18.00;99.90;;;;;;5081382;28;20216;-77
2023/06/27 02:07:09;;;;;;;3.92;1.30;;;17.90;99.90;;;;;;5093790;28;20204;-76
2023/06/27 02:09:37;;;;;;;5.97;1.20;;;17.90;99.90;;;;;;5093966;28;20208;-76
2023/06/27 02:12:06;;;;;;;3.20;1.20;;;17.90;99.90;;;;;;5094594;28;20307;-76
2023/06/27 02:14:34;;;;;;;0.98;0.90;;;17.80;99.90;;;;;;5093937;28;20261;-76
2023/06/27 02:17:04;;;;;;;1.65;1.10;;;17.80;99.90;;;;;;5088394;28;20670;-76
2023/06/27 02:19:32;;;;;;;4.32;1.20;;;17.70;99.90;;;;;;5086391;28;20665;-76
2023/06/27 02:22:00;;;;;;;3.47;1.33;;;17.60;99.90;;;;;;5094362;28;20315;-77
2023/06/27 02:24:27;;;;;;;2.72;1.00;;;17.60;99.90;;;;;;5093934;28;20224;-77
2023/06/27 02:26:55;;;;;;;0.95;0.95;;;17.50;99.90;;;;;;5093817;28;20261;-77
2023/06/27 02:29:23;;;;;;;3.22;1.10;;;17.50;99.90;;;;;;5094448;28;20188;-77
2023/06/27 02:31:51;;;;;;;3.05;1.17;;;17.50;99.90;;;;;;5094177;28;20307;-77
2023/06/27 02:34:21;;;;;;;4.15;1.20;;;17.50;99.90;;;;;;5093611;28;20227;-78
2023/06/27 02:36:48;;;;;;;1.85;1.13;;;17.40;99.90;;;;;;5092440;28;20192;-77
2023/06/27 02:39:16;;;;;;;4.00;0.90;;;17.40;99.90;;;;;;5093681;28;20250;-78
2023/06/27 02:41:44;;;;;;;3.42;1.10;;;17.50;99.90;;;;;;5094005;28;20259;-77
2023/06/27 02:44:12;;;;;;;4.80;1.30;;;17.40;99.90;;;;;;5093995;28;20329;-77
2023/06/27 02:46:40;;;;;;;3.70;1.25;;;17.30;99.90;;;;;;5093408;28;20623;-77
2023/06/27 02:49:08;;;;;;;3.60;1.10;;;17.30;99.90;;;;;;5093418;28;20200;-78
2023/06/27 02:51:37;;;;;;;2.65;1.35;;;17.30;99.90;;;;;;5093912;28;20260;-78
2023/06/27 02:54:06;;;;;;;2.22;1.30;;;17.30;99.90;;;;;;5093734;28;20181;-77
2023/06/27 02:56:33;;;;;;;2.47;0.95;;;17.20;99.90;;;;;;5093187;28;20256;-79
2023/06/27 02:59:02;;;;;;;5.85;1.30;;;17.20;99.90;;;;;;5093419;28;20188;-77
2023/06/27 03:01:30;;;;;;;5.60;1.23;;;17.10;99.90;;;;;;5093282;28;20267;-77
2023/06/27 03:03:58;;;;;;;3.65;1.13;;;17.00;99.90;;;;;;5082394;28;20304;-79
2023/06/27 03:06:46;;;;;;;4.30;1.73;;;17.00;99.90;;;;;;5072625;28;20205;-76
2023/06/27 03:09:14;;;;;;;4.53;1.38;;;16.90;99.90;;;;;;5069859;28;20209;-76
2023/06/27 03:11:42;;;;;;;2.70;1.30;;;16.90;99.90;;;;;;5070403;28;20221;-77
2023/06/27 03:14:10;;;;;;;9.32;1.67;;;16.90;99.90;;;;;;5079575;28;20208;-77
2023/06/27 03:16:38;;;;;;;3.45;1.50;;;16.80;99.90;;;;;;5090197;28;20204;-77
2023/06/27 03:19:06;;;;;;;7.95;1.50;;;16.80;99.90;;;;;;5090316;28;20287;-76
2023/06/27 03:21:34;;;;;;;1.83;1.35;;;16.80;99.90;;;;;;5090157;28;20312;-76
2023/06/27 03:24:03;;;;;;;1.70;1.10;;;16.90;99.90;;;;;;5090180;28;20211;-76
2023/06/27 03:26:31;;;;;;;5.97;1.85;;;16.80;99.90;;;;;;5085535;28;20247;-76
2023/06/27 03:28:59;;;;;;;2.60;1.42;;;16.90;99.90;;;;;;5069913;28;20250;-76
2023/06/27 03:31:27;;;;;;;3.22;1.52;;;16.80;99.90;;;;;;5081624;28;20247;-76
2023/06/27 03:33:56;;;;;;;1.92;1.30;;;16.80;99.90;;;;;;5089825;28;20699;-76
2023/06/27 03:36:25;;;;;;;1.65;1.33;;;16.80;99.90;;;;;;5089857;28;20215;-76
2023/06/27 03:38:53;;;;;;;4.25;1.65;;;16.80;99.90;;;;;;5089343;28;20243;-77
2023/06/27 03:41:22;;;;;;;2.78;1.20;;;16.80;99.90;;;;;;5090135;28;20285;-75
2023/06/27 03:43:50;;;;;;;2.58;1.20;;;16.80;99.90;;;;;;5091356;28;20251;-75
2023/06/27 03:46:18;;;;;;;4.40;1.30;;;16.80;99.90;;;;;;5089624;28;20228;-76
2023/06/27 03:48:47;;;;;;;10.02;1.38;;;16.90;99.90;;;;;;5091382;28;20196;-76
2023/06/27 03:51:15;;;;;;;5.60;1.65;;;16.80;99.90;;;;;;5089537;28;20232;-76
2023/06/27 03:53:42;;;;;;;3.42;1.15;;;16.90;99.90;;;;;;5089343;28;20265;-75
2023/06/27 03:56:10;;;;;;;4.70;0.93;;;16.90;99.90;;;;;;5088650;28;20628;-76
2023/06/27 03:58:40;;;;;;;2.75;1.13;;;17.00;99.90;;;;;;5089677;28;20271;-75
2023/06/27 04:01:08;;;;;;;5.72;1.40;;;17.00;99.90;;;;;;5089655;28;20273;-78
2023/06/27 04:03:35;;;;;;;4.43;1.25;;;17.10;99.90;;;;;;5089445;28;20232;-79
2023/06/27 04:06:04;;;;;;;1.05;0.98;;;17.10;99.90;;;;;;5088085;28;20247;-76
2023/06/27 04:08:31;;;;;;;3.60;1.23;;;17.10;99.90;;;;;;5088714;28;20204;-76
2023/06/27 04:10:59;;;;;;;3.50;1.20;;;17.10;99.90;;;;;;5089595;28;20306;-78
2023/06/27 04:13:27;;;;;;;3.53;1.42;;;17.10;99.90;;;;;;5089489;28;20215;-75
2023/06/27 04:15:57;;;;;;;1.27;1.10;;;17.10;99.90;;;;;;5087109;28;20639;-76
2023/06/27 04:18:25;;;;;;;4.05;0.80;;;17.20;99.90;;;;;;5089496;28;20262;-77
2023/06/27 04:20:52;;;;;;;6.72;1.10;;;17.20;99.90;;;;;;5088862;28;20317;-77
2023/06/27 04:23:20;;;;;;;3.72;0.90;;;17.20;99.90;;;;;;5089890;28;20711;-76
2023/06/27 04:26:02;;;;;;;4.35;1.50;;;17.20;99.90;;;;;;5078021;28;20227;-75
2023/06/27 04:28:31;;;;;;;1.23;1.17;;;17.20;99.90;;;;;;5082235;28;20327;-75
2023/06/27 04:31:00;;;;;;;5.07;1.10;;;17.30;99.90;;;;;;5081351;28;20220;-76
2023/06/27 04:33:28;;;;;;;5.45;1.30;;;17.30;99.90;;;;;;5086122;28;20219;-76
2023/06/27 04:36:01;;;;;;;2.08;0.90;;;17.30;99.90;;;;;;5078867;28;20484;-75
2023/06/27 04:38:30;;;;;;;1.98;1.10;;;17.40;99.90;;;;;;5087339;28;20257;-75
2023/06/27 04:40:58;;;;;;;4.80;1.40;;;17.40;99.90;;;;;;5088199;28;20281;-75
2023/06/27 04:43:26;;;;;;;3.60;1.13;;;17.50;99.90;;;;;;5088674;28;20231;-76
2023/06/27 04:45:54;;;;;;;2.80;1.40;;;17.50;99.90;;;;;;5083629;28;20254;-75
2023/06/27 04:48:23;;;;;;;3.70;1.35;;;17.60;99.90;;;;;;5092573;28;20275;-75
2023/06/27 04:50:51;;;;;;;4.93;1.40;;;17.60;99.90;;;;;;5085233;28;20622;-76
2023/06/27 04:53:19;;;;;;;3.03;0.90;;;17.70;99.90;;;;;;5085838;28;20223;-76
2023/06/27 04:55:48;;;;;;;1.27;1.15;;;17.70;99.90;;;;;;5079921;28;20192;-75
2023/06/27 04:58:16;;;;;;;4.20;1.60;;;17.80;99.90;;;;;;5086141;28;20266;-75
2023/06/27 05:00:44;;;;;;;1.65;1.20;;;17.80;99.90;;;;;;5078322;28;20220;-76
2023/06/27 05:03:13;;;;;;;5.18;1.20;;;17.80;99.90;;;;;;5092264;28;20253;-76
2023/06/27 05:05:43;;;;;;;3.13;0.95;;;17.90;99.90;;;;;;5092870;28;20308;-75
2023/06/27 05:08:11;;;;;;;2.03;0.88;;;17.90;99.90;;;;;;5092732;28;20224;-75
2023/06/27 05:10:39;;;;;;;1.17;0.98;;;18.10;99.90;;;;;;5093496;28;20779;-74
2023/06/27 05:13:07;;;;;;;2.90;1.05;;;18.30;99.90;;;;;;5094704;28;20196;-74
2023/06/27 05:15:35;;;;;;;15.73;3.50;;;18.50;99.90;;;;;;5097182;28;20211;-74
2023/06/27 05:18:22;;;;;;;3.95;1.63;;;18.70;99.90;;;;;;5092922;28;20661;-74
2023/06/27 05:20:51;;;;;;;6.22;1.95;;;18.90;99.90;;;;;;5092351;28;20927;-75
2023/06/27 05:23:20;;;;;;;8.93;1.70;;;19.10;99.90;;;;;;5093304;28;20192;-75
2023/06/27 05:25:49;;;;;;;3.13;1.23;;;19.20;99.90;;;;;;5092121;28;20219;-74
2023/06/27 05:28:17;;;;;;;3.50;1.50;;;19.40;99.90;;;;;;5092867;28;20200;-75
2023/06/27 05:30:45;;;;;;;2.35;1.20;;;19.50;99.90;;;;;;5092677;28;20256;-75
2023/06/27 05:33:13;;;;;;;7.15;1.40;;;19.50;99.90;;;;;;5092525;28;20196;-75
2023/06/27 05:35:41;;;;;;;6.25;1.10;;;19.50;99.90;;;;;;5092098;28;20207;-75
2023/06/27 05:38:11;;;;;;;3.13;1.20;;;19.50;99.90;;;;;;5082616;28;20587;-75
2023/06/27 05:40:39;;;;;;;3.33;1.15;;;19.60;99.90;;;;;;5076221;28;20212;-75
2023/06/27 05:43:08;;;;;;;3.88;1.35;;;19.60;99.90;;;;;;5081468;28;20219;-75
2023/06/27 05:45:36;;;;;;;2.50;1.25;;;19.60;99.90;;;;;;5087967;28;20238;-75
2023/06/27 05:48:05;;;;;;;3.88;1.10;;;19.60;99.90;;;;;;5092314;28;20220;-75
2023/06/27 05:50:33;;;;;;;5.53;1.15;;;19.60;99.90;;;;;;5075365;28;20215;-75
2023/06/27 05:53:01;;;;;;;2.65;1.35;;;19.60;99.90;;;;;;5092320;28;20243;-75
2023/06/27 05:55:30;;;;;;;5.32;1.38;;;19.60;99.90;;;;;;5076450;28;20258;-75
2023/06/27 05:57:58;;;;;;;2.47;1.10;;;19.70;99.90;;;;;;5072227;28;20642;-75
2023/06/27 06:00:26;;;;;;;3.83;0.98;;;19.80;99.90;;;;;;5075604;28;20277;-74
2023/06/27 06:02:54;;;;;;;2.08;0.93;;;19.80;99.90;;;;;;5083922;28;20289;-74
2023/06/27 06:05:22;;;;;;;2.88;1.20;;;19.80;99.90;;;;;;5082498;28;20204;-74
2023/06/27 06:07:50;;;;;;;1.45;1.08;;;19.90;99.90;;;;;;5087937;28;20311;-74
2023/06/27 06:10:18;;;;;;;4.05;1.15;;;19.90;99.90;;;;;;5083692;28;20193;-75
2023/06/27 06:12:48;;;;;;;5.22;1.50;;;19.90;99.90;;;;;;5086871;28;20230;-76
2023/06/27 06:15:16;;;;;;;4.57;1.50;;;19.80;99.90;;;;;;5090365;28;20247;-75
2023/06/27 06:17:46;;;;;;;4.82;1.30;;;19.80;99.90;;;;;;5086312;28;20214;-74
2023/06/27 06:20:14;;;;;;;2.45;1.25;;;19.80;99.90;;;;;;5088772;28;20192;-75
2023/06/27 06:22:42;;;;;;;4.10;1.35;;;19.70;99.90;;;;;;5088863;28;20237;-76
2023/06/27 06:25:10;;;;;;;4.07;1.02;;;19.70;99.90;;;;;;5089920;28;20228;-76
2023/06/27 06:27:38;;;;;;;4.47;1.20;;;19.80;99.90;;;;;;5087311;28;20275;-75
2023/06/27 06:30:09;;;;;;;1.33;1.10;;;19.90;99.90;;;;;;5087537;28;20204;-75
2023/06/27 06:32:37;;;;;;;3.22;1.13;;;20.00;99.90;;;;;;5086923;28;20223;-74
2023/06/27 06:35:07;;;;;;;5.28;1.40;;;20.00;99.90;;;;;;5083881;28;20189;-75
2023/06/27 06:37:34;;;;;;;6.25;1.08;;;20.10;99.90;;;;;;5090865;28;20204;-75
2023/06/27 06:40:03;;;;;;;1.98;0.85;;;20.00;99.90;;;;;;5087928;28;20666;-74
2023/06/27 06:42:31;;;;;;;1.70;1.10;;;20.10;99.90;;;;;;5087807;28;20220;-75
2023/06/27 06:44:59;;;;;;;1.67;1.42;;;20.10;99.90;;;;;;5082643;28;20204;-75
2023/06/27 06:47:29;;;;;;;3.47;1.25;;;20.20;99.90;;;;;;5093228;28;20212;-74
2023/06/27 06:49:57;;;;;;;4.65;1.23;;;20.20;99.90;;;;;;5092132;28;20224;-75
2023/06/27 06:52:24;;;;;;;3.75;1.15;;;20.30;99.90;;;;;;5094883;28;20265;-75
2023/06/27 06:54:52;;;;;;;3.38;1.08;;;20.30;99.90;;;;;;5088650;28;20200;-76
2023/06/27 06:57:20;;;;;;;3.00;1.13;;;20.30;99.90;;;;;;5083700;28;20273;-76
2023/06/27 06:59:48;;;;;;;4.75;1.13;;;20.30;99.90;;;;;;5092123;28;20243;-75
2023/06/27 07:02:16;;;;;;;1.83;1.23;;;20.30;99.90;;;;;;5088464;28;20224;-75
2023/06/27 07:04:45;;;;;;;5.70;1.48;;;20.20;99.90;;;;;;5077420;28;20203;-76
2023/06/27 07:07:13;;;;;;;3.78;1.13;;;20.20;99.90;;;;;;5091042;28;20246;-75
2023/06/27 07:09:41;;;;;;;5.10;1.35;;;20.30;99.90;;;;;;5091010;28;20207;-75
2023/06/27 07:12:09;;;;;;;4.47;1.58;;;20.40;99.90;;;;;;5092294;28;20712;-75
2023/06/27 07:14:37;;;;;;;4.38;1.60;;;20.40;99.90;;;;;;5091372;28;20608;-76
2023/06/27 07:17:06;;;;;;;2.13;1.00;;;20.60;99.90;;;;;;5092977;28;20222;-74
2023/06/27 07:19:34;;;;;;;3.40;1.00;;;20.70;99.90;;;;;;5092854;28;20200;-75
2023/06/27 07:22:03;;;;;;;4.43;1.63;;;20.80;99.90;;;;;;5088937;28;20219;-76
2023/06/27 07:24:31;;;;;;;4.05;1.02;;;20.80;99.90;;;;;;5089679;28;20207;-75
2023/06/27 07:26:59;;;;;;;3.78;1.30;;;20.80;99.90;;;;;;5088344;28;20243;-76
2023/06/27 07:29:27;;;;;;;6.72;1.40;;;20.90;99.90;;;;;;5076279;28;20209;-76
2023/06/27 07:31:55;;;;;;;3.95;1.15;;;21.00;99.90;;;;;;5074180;28;20312;-75
2023/06/27 07:34:23;;;;;;;1.42;1.13;;;21.10;99.90;;;;;;5070023;28;20625;-74
2023/06/27 07:36:51;;;;;;;4.22;1.30;;;21.20;99.90;;;;;;5069609;28;20304;-75
2023/06/27 07:39:20;;;;;;;3.38;1.20;;;21.10;99.90;;;;;;5080648;28;20203;-74
2023/06/27 07:41:53;;;;;;;3.58;1.08;;;21.20;99.90;;;;;;5074221;28;20320;-76
2023/06/27 07:44:21;;;;;;;4.38;1.30;;;21.20;99.90;;;;;;5085831;28;20269;-75
2023/06/27 07:46:49;;;;;;;3.30;1.30;;;21.20;99.90;;;;;;5072967;28;20213;-75
2023/06/27 07:49:17;;;;;;;3.08;1.00;;;21.30;99.90;;;;;;5082985;28;20224;-74
2023/06/27 07:51:49;;;;;;;1.25;1.15;;;21.30;99.90;;;;;;5085896;28;20657;-75
2023/06/27 07:54:17;;;;;;;4.57;1.20;;;21.40;99.90;;;;;;5089653;28;20192;-75
2023/06/27 07:56:47;;;;;;;3.72;1.17;;;21.60;99.90;;;;;;5088179;28;20234;-76
2023/06/27 07:59:15;;;;;;;2.08;1.17;;;21.70;99.90;;;;;;5089860;28;20275;-75
2023/06/27 08:01:43;;;;;;;4.68;1.23;;;21.80;99.90;;;;;;5089751;28;20249;-76
2023/06/27 08:04:11;;;;;;;6.30;1.40;;;21.80;99.90;;;;;;5086341;28;20207;-74
2023/06/27 08:06:39;;;;;;;5.90;1.33;;;21.80;99.90;;;;;;5073598;28;20701;-74
2023/06/27 08:09:07;;;;;;;6.65;1.55;;;21.80;99.90;;;;;;5089894;28;20199;-73
2023/06/27 08:11:35;;;;;;;6.43;1.30;;;21.80;99.90;;;;;;5089270;28;20569;-74
2023/06/27 08:14:04;;;;;;;2.95;1.25;;;21.80;99.90;;;;;;5089238;28;20921;-73
2023/06/27 08:16:33;;;;;;;4.82;1.55;;;21.90;99.90;;;;;;5088499;28;20203;-76
2023/06/27 08:19:01;;;;;;;3.95;1.40;;;21.90;99.90;;;;;;5088940;28;20291;-73
2023/06/27 08:21:29;;;;;;;3.35;1.20;;;21.90;99.90;;;;;;5088923;28;20224;-73
2023/06/27 08:23:57;;;;;;;2.00;0.95;;;21.90;99.90;;;;;;5088839;28;20826;-73
2023/06/27 08:26:25;;;;;;;5.03;1.15;;;22.00;99.90;;;;;;5087926;28;20211;-73
2023/06/27 08:28:55;;;;;;;2.28;1.00;;;22.20;99.90;;;;;;5088605;28;20685;-73
2023/06/27 08:31:24;;;;;;;4.53;1.33;;;22.30;99.90;;;;;;5089159;28;20220;-73
2023/06/27 08:33:52;;;;;;;4.78;1.25;;;22.20;99.90;;;;;;5087947;28;20200;-74
2023/06/27 08:36:20;;;;;;;2.72;1.08;;;22.20;99.90;;;;;;5088323;28;20203;-73
2023/06/27 08:38:48;;;;;;;2.97;1.10;;;22.20;99.90;;;;;;5088707;28;20224;-73
2023/06/27 08:41:16;;;;;;;4.25;1.20;;;22.20;99.90;;;;;;5087984;28;20220;-74
2023/06/27 08:43:44;;;;;;;7.30;1.35;;;22.20;99.90;;;;;;5088111;28;20680;-73
2023/06/27 08:46:12;;;;;;;1.30;1.05;;;22.20;99.90;;;;;;5087964;28;20291;-76
2023/06/27 08:48:41;;;;;;;4.30;1.50;;;22.30;99.90;;;;;;5088832;28;20299;-75
2023/06/27 08:51:09;;;;;;;3.10;1.38;;;22.40;99.90;;;;;;5089053;28;20709;-73
2023/06/27 08:53:37;;;;;;;2.70;1.40;;;22.50;99.90;;;;;;5088970;28;20200;-73
2023/06/27 08:56:06;;;;;;;2.35;0.90;;;22.40;99.90;;;;;;5071502;28;20200;-73
2023/06/27 08:58:37;;;;;;;2.60;1.10;;;22.50;99.90;;;;;;5084176;28;20235;-73
2023/06/27 09:01:05;;;;;;;4.10;1.17;;;22.60;99.90;;;;;;5068541;28;20265;-74
2023/06/27 09:03:33;;;;;;;2.05;1.27;;;22.70;99.90;;;;;;5080888;28;20195;-74
2023/06/27 09:06:05;;;;;;;3.17;1.15;;;22.90;99.90;;;;;;5071501;28;20589;-73
2023/06/27 09:08:33;;;;;;;1.33;1.17;;;23.00;99.90;;;;;;5072956;28;20266;-73
2023/06/27 09:11:01;;;;;;;3.92;0.95;;;23.10;99.90;;;;;;5080300;28;20277;-75
2023/06/27 09:13:29;;;;;;;4.22;1.00;;;23.30;99.90;;;;;;5080166;28;20719;-74
2023/06/27 09:15:57;;;;;;;5.03;1.40;;;23.50;99.90;;;;;;5071696;28;20213;-74
2023/06/27 09:18:25;;;;;;;4.18;1.05;;;23.70;99.90;;;;;;5086044;28;20231;-74
2023/06/27 09:20:55;;;;;;;4.65;1.30;;;23.70;99.90;;;;;;5088344;28;20270;-76
2023/06/27 09:23:24;;;;;;;2.38;1.40;;;23.60;99.90;;;;;;5088665;28;20249;-73
2023/06/27 09:26:06;;;;;;;6.43;1.35;;;23.40;99.90;;;;;;5087311;28;20196;-74
2023/06/27 09:28:46;;;;;;;2.65;1.00;;;23.20;99.90;;;;;;5072641;28;20249;-73
2023/06/27 09:31:15;;;;;;;4.70;1.42;;;23.30;99.90;;;;;;5087793;28;20280;-73
2023/06/27 09:33:44;;;;;;;3.83;1.10;;;23.40;99.90;;;;;;5077584;28;20192;-74
2023/06/27 09:36:13;;;;;;;5.53;1.50;;;23.40;99.90;;;;;;5085535;28;20200;-74
2023/06/27 09:38:42;;;;;;;3.13;1.20;;;23.50;99.90;;;;;;5072524;28;20293;-74
2023/06/27 09:41:16;;;;;;;3.70;1.40;;;23.60;99.90;;;;;;5078165;28;20219;-74
2023/06/27 09:43:43;;;;;;;5.03;1.40;;;23.70;99.90;;;;;;5084785;28;20291;-74
2023/06/27 09:46:11;;;;;;;3.63;0.98;;;23.90;99.90;;;;;;5087632;28;20200;-73
2023/06/27 09:48:39;;;;;;;1.48;1.00;;;24.10;99.90;;;;;;5076015;28;20257;-74
2023/06/27 09:51:08;;;;;;;2.42;1.25;;;24.30;99.90;;;;;;5086983;28;20224;-74
2023/06/27 09:53:36;;;;;;;4.80;1.30;;;24.50;99.90;;;;;;5087660;28;20665;-74
2023/06/27 09:56:06;;;;;;;3.28;0.80;;;24.60;99.60;;;;;;5077764;28;20208;-74
2023/06/27 09:58:34;;;;;;;3.70;0.90;;;24.70;99.50;;;;;;5082863;28;20743;-75
2023/06/27 10:01:05;;;;;;;5.32;1.17;;;24.80;97.70;;;;;;5083251;28;20224;-73
2023/06/27 10:03:34;;;;;;;6.10;1.00;;;24.80;97.40;;;;;;5084363;28;20192;-74
2023/06/27 10:06:02;;;;;;;2.90;1.23;;;24.70;98.00;;;;;;5074495;28;20208;-73
2023/06/27 10:08:39;;;;;;;2.78;1.08;;;24.60;99.10;;;;;;5091425;28;20216;-74
2023/06/27 10:11:08;;;;;;;2.92;1.20;;;24.60;99.00;;;;;;5082563;28;20232;-75
2023/06/27 10:13:39;;;;;;;1.63;1.02;;;24.50;97.40;;;;;;5084411;28;20200;-74
2023/06/27 10:16:07;;;;;;;3.58;1.20;;;24.30;97.20;;;;;;5073740;28;20690;-74
2023/06/27 10:18:35;;;;;;;5.55;1.30;;;24.30;98.80;;;;;;5086756;28;20192;-74
2023/06/27 10:21:03;;;;;;;3.40;1.25;;;24.50;97.70;;;;;;5079500;28;20270;-76
2023/06/27 10:23:31;;;;;;;4.05;1.08;;;24.60;96.70;;;;;;5079141;28;20240;-75
2023/06/27 10:25:59;;;;;;;1.88;1.05;;;24.60;95.90;;;;;;5086563;28;20207;-74
2023/06/27 10:28:29;;;;;;;3.95;0.90;;;24.50;95.80;;;;;;5074137;28;20693;-74
2023/06/27 10:30:57;;;;;;;2.35;0.98;;;24.70;95.90;;;;;;5091381;28;20571;-73
2023/06/27 10:33:28;;;;;;;2.80;1.23;;;24.90;95.90;;;;;;5091540;28;20220;-74
2023/06/27 10:36:01;;;;;;;5.82;1.35;;;25.10;95.50;;;;;;5090543;28;20208;-73
2023/06/27 10:38:34;;;;;;;2.35;0.95;;;25.30;94.40;;;;;;5074781;28;20203;-76
2023/06/27 10:41:13;;;;;;;3.05;0.98;;;25.50;94.30;;;;;;5090335;28;20251;-76
2023/06/27 10:43:51;;;;;;;4.00;1.20;;;25.70;93.90;;;;;;5090748;28;20615;-74
2023/06/27 10:46:20;;;;;;;3.78;1.00;;;26.10;94.50;;;;;;5090120;28;20200;-73
2023/06/27 10:48:48;;;;;;;2.25;1.10;;;26.50;94.10;;;;;;5090591;28;20255;-75
2023/06/27 10:51:18;;;;;;;6.78;0.80;;;26.70;92.70;;;;;;5087930;28;20250;-74
2023/06/27 10:54:16;;;;;;;3.35;1.20;;;26.70;92.00;;;;;;5076751;28;20238;-74
2023/06/27 10:56:44;;;;;;;2.28;1.00;;;26.60;91.40;;;;;;5074962;28;20192;-75
2023/06/27 10:59:15;;;;;;;3.25;1.10;;;26.50;91.60;;;;;;5091102;28;20193;-74
2023/06/27 11:01:44;;;;;;;1.85;1.20;;;26.40;91.80;;;;;;5092131;28;20220;-76
2023/06/27 11:04:19;;;;;;;6.72;1.30;;;26.40;93.10;;;;;;5093429;28;20189;-76
2023/06/27 11:06:48;;;;;;;1.90;1.10;;;26.40;92.40;;;;;;5093042;28;20490;-76
2023/06/27 11:09:17;;;;;;;2.17;0.98;;;26.40;91.10;;;;;;5092729;28;20231;-76
2023/06/27 11:11:55;;;;;;;2.90;1.17;;;26.20;91.40;;;;;;5093058;28;20311;-76
2023/06/27 11:14:38;;;;;;;1.50;0.90;;;26.30;92.10;;;;;;5092854;28;20211;-76
2023/06/27 11:17:06;;;;;;;3.17;1.40;;;26.40;90.00;;;;;;5093207;28;20184;-76
2023/06/27 11:19:35;;;;;;;2.78;1.00;;;26.60;90.50;;;;;;5092721;28;20554;-75
2023/06/27 11:22:03;;;;;;;2.55;1.20;;;26.60;90.40;;;;;;5090725;28;20256;-76
2023/06/27 11:24:31;;;;;;;3.40;1.08;;;26.60;91.50;;;;;;5085829;28;20634;-76
2023/06/27 11:26:59;;;;;;;2.05;1.02;;;26.60;92.80;;;;;;5069665;28;20284;-75
2023/06/27 11:29:27;;;;;;;2.53;0.90;;;26.80;91.00;;;;;;5081855;28;20220;-76
2023/06/27 11:31:56;;;;;;;6.47;1.27;;;26.90;86.70;;;;;;5074521;28;20282;-76
2023/06/27 11:34:25;;;;;;;3.15;1.02;;;27.00;90.20;;;;;;5086694;28;20658;-75
2023/06/27 11:36:54;;;;;;;3.28;1.20;;;27.20;85.70;;;;;;5076595;28;20695;-75
2023/06/27 11:39:23;;;;;;;2.85;0.95;;;27.20;83.20;;;;;;5090065;28;20257;-76
2023/06/27 11:41:51;;;;;;;1.55;0.95;;;27.40;83.70;;;;;;5090209;28;20223;-76
2023/06/27 11:44:19;;;;;;;2.42;1.00;;;27.50;80.60;;;;;;5089993;28;20684;-76
2023/06/27 11:46:49;;;;;;;1.23;1.10;;;27.80;85.90;;;;;;5089583;28;20200;-76
2023/06/27 11:49:21;;;;;;;3.17;1.05;;;28.00;82.00;;;;;;5090105;28;20215;-76
2023/06/27 11:51:49;;;;;;;4.95;1.25;;;27.90;78.70;;;;;;5089475;28;20683;-76
2023/06/27 11:54:17;;;;;;;2.40;1.20;;;27.80;79.30;;;;;;5087445;28;20275;-75
2023/06/27 11:56:45;;;;;;;2.42;1.10;;;27.80;78.80;;;;;;5075355;28;20219;-75
2023/06/27 11:59:13;;;;;;;1.35;0.93;;;28.10;80.30;;;;;;5080302;28;20192;-76
2023/06/27 12:01:41;;;;;;;2.35;1.20;;;28.60;78.90;;;;;;5081223;28;20235;-76
2023/06/27 12:04:12;;;;;;;3.25;1.00;;;28.90;79.10;;;;;;5090417;28;20203;-76
2023/06/27 12:06:43;;;;;;;1.83;1.10;;;29.10;78.30;;;;;;5074573;28;20599;-76
2023/06/27 12:09:19;;;;;;;4.68;1.00;;;29.10;75.70;;;;;;5089887;28;20237;-76
2023/06/27 12:11:51;;;;;;;2.35;1.10;;;29.40;74.50;;;;;;5087607;28;20243;-75
2023/06/27 12:14:22;;;;;;;2.65;1.35;;;29.60;71.90;;;;;;5084634;28;20270;-76
2023/06/27 12:16:49;;;;;;;3.95;1.10;;;29.20;72.00;;;;;;5084451;28;20273;-76
2023/06/27 12:19:19;;;;;;;2.03;1.20;;;28.80;71.20;;;;;;5080397;28;20227;-76
2023/06/27 12:21:48;;;;;;;1.08;0.98;;;28.60;70.40;;;;;;5086286;28;20262;-76
2023/06/27 12:24:16;;;;;;;1.88;1.30;;;28.40;71.80;;;;;;5083973;28;20205;-76
2023/06/27 12:26:45;;;;;;;1.27;1.00;;;28.20;71.10;;;;;;5082002;28;20218;-76
2023/06/27 12:29:13;;;;;;;3.53;0.90;;;28.10;72.60;;;;;;5084247;28;20212;-76
2023/06/27 12:31:41;;;;;;;1.80;1.10;;;28.40;72.90;;;;;;5087895;28;20255;-76
2023/06/27 12:34:10;;;;;;;1.70;1.00;;;28.60;71.80;;;;;;5085244;28;20208;-76
2023/06/27 12:36:38;;;;;;;2.38;1.38;;;28.70;70.30;;;;;;5073944;28;20607;-75
2023/06/27 12:39:07;;;;;;;3.08;1.55;;;28.20;68.90;;;;;;5079931;28;20204;-76
2023/06/27 12:41:35;;;;;;;1.17;1.00;;;28.20;70.50;;;;;;5081888;28;20368;-76
2023/06/27 12:44:03;;;;;;;3.30;1.08;;;28.20;70.50;;;;;;5072333;28;20239;-76
2023/06/27 12:46:32;;;;;;;3.35;1.08;;;28.00;69.90;;;;;;5084566;28;20584;-76
2023/06/27 12:49:00;;;;;;;3.28;1.05;;;27.80;70.30;;;;;;5077208;28;20762;-75
2023/06/27 12:51:28;;;;;;;2.45;1.23;;;27.70;70.50;;;;;;5077567;28;20316;-76
2023/06/27 12:53:56;;;;;;;2.47;1.30;;;27.50;70.50;;;;;;5084331;28;20239;-75
2023/06/27 12:56:25;;;;;;;1.95;1.27;;;27.70;72.60;;;;;;5084488;28;20262;-76